createdAt,value
2018-06-29T00:01:50.254Z,98393.52
2018-06-29T00:04:19.057Z,98396.64
2018-06-29T00:06:47.950Z,98404.83
2018-06-29T00:09:16.735Z,98396.14
2018-06-29T00:11:45.546Z,98401.39
2018-06-29T00:14:14.374Z,98401.45
2018-06-29T00:16:43.122Z,98403.23
2018-06-29T00:19:11.999Z,98405.47
2018-06-29T00:21:40.758Z,98412.92
2018-06-29T00:24:09.651Z,98409.20
2018-06-29T00:26:38.565Z,98411.17
2018-06-29T00:29:07.411Z,98407.39
2018-06-29T00:31:36.208Z,98410.56
2018-06-29T00:34:05.016Z,98403.59
2018-06-29T00:36:33.746Z,98411.84
2018-06-29T00:39:02.780Z,98407.94
2018-06-29T00:41:31.499Z,98404.36
2018-06-29T00:44:00.275Z,98405.59
2018-06-29T00:46:29.341Z,98410.41
2018-06-29T00:48:58.821Z,98411.95
2018-06-29T00:51:27.980Z,98417.20
2018-06-29T00:53:57.164Z,98407.52
2018-06-29T00:56:25.965Z,98411.09
2018-06-29T00:58:54.742Z,98410.56
2018-06-29T01:01:23.634Z,98409.45
2018-06-29T01:03:52.367Z,98411.39
2018-06-29T01:06:21.213Z,98418.70
2018-06-29T01:08:49.936Z,98413.24
2018-06-29T01:11:18.691Z,98414.63
2018-06-29T01:13:47.405Z,98414.73
2018-06-29T01:16:16.127Z,98414.09
2018-06-29T01:18:44.849Z,98410.94
2018-06-29T01:21:13.677Z,98411.31
2018-06-29T01:23:42.523Z,98414.27
2018-06-29T01:26:12.544Z,98415.80
2018-06-29T01:28:41.327Z,98421.11
2018-06-29T01:31:10.284Z,98410.45
2018-06-29T01:33:39.152Z,98407.61
2018-06-29T01:36:08.044Z,98406.45
2018-06-29T01:38:36.827Z,98398.35
2018-06-29T01:41:05.537Z,98398.26
2018-06-29T01:43:34.383Z,98396.11
2018-06-29T01:46:03.261Z,98385.37
2018-06-29T01:48:32.068Z,98390.17
2018-06-29T01:51:00.963Z,98385.77
2018-06-29T01:53:29.707Z,98391.19
2018-06-29T01:55:58.567Z,98390.09
2018-06-29T01:58:27.470Z,98377.05
2018-06-29T02:00:56.259Z,98381.28
2018-06-29T02:03:25.129Z,98378.97
2018-06-29T02:05:53.885Z,98377.73
2018-06-29T02:08:22.629Z,98388.66
2018-06-29T02:10:51.363Z,98386.60
2018-06-29T02:13:20.249Z,98384.52
2018-06-29T02:15:49.099Z,98383.82
2018-06-29T02:18:17.838Z,98374.65
2018-06-29T02:20:46.600Z,98380.64
2018-06-29T02:23:15.486Z,98378.63
2018-06-29T02:25:44.558Z,98378.27
2018-06-29T02:28:13.296Z,98371.98
2018-06-29T02:30:42.042Z,98374.07
2018-06-29T02:33:10.918Z,98370.11
2018-06-29T02:35:39.637Z,98369.50
2018-06-29T02:38:08.506Z,98369.65
2018-06-29T02:40:37.310Z,98364.18
2018-06-29T02:43:06.259Z,98357.02
2018-06-29T02:45:34.952Z,98361.17
2018-06-29T02:48:03.740Z,98366.44
2018-06-29T02:50:32.429Z,98362.89
2018-06-29T02:53:01.204Z,98372.83
2018-06-29T02:55:29.884Z,98368.97
2018-06-29T02:57:58.614Z,98367.37
2018-06-29T03:00:27.538Z,98366.48
2018-06-29T03:02:56.310Z,98358.64
2018-06-29T03:05:25.212Z,98353.84
2018-06-29T03:07:54.066Z,98357.63
2018-06-29T03:10:22.846Z,98364.39
2018-06-29T03:12:51.636Z,98361.72
2018-06-29T03:15:20.433Z,98362.47
2018-06-29T03:17:49.247Z,98367.00
2018-06-29T03:20:17.970Z,98376.74
2018-06-29T03:22:46.650Z,98371.56
2018-06-29T03:25:15.650Z,98365.66
2018-06-29T03:27:45.061Z,98376.55
2018-06-29T03:30:13.899Z,98374.38
2018-06-29T03:32:42.653Z,98366.92
2018-06-29T03:35:11.394Z,98369.81
2018-06-29T03:37:40.139Z,98372.90
2018-06-29T03:40:08.876Z,98367.59
2018-06-29T03:42:37.644Z,98363.13
2018-06-29T03:45:06.427Z,98362.95
2018-06-29T03:47:35.312Z,98364.86
2018-06-29T03:50:04.308Z,98363.22
2018-06-29T03:52:33.418Z,98361.48
2018-06-29T03:55:02.337Z,98349.71
2018-06-29T03:57:31.049Z,98350.66
2018-06-29T03:59:59.830Z,98346.59
2018-06-29T04:02:28.668Z,98348.81
2018-06-29T04:04:57.448Z,98348.43
2018-06-29T04:07:26.096Z,98355.05
2018-06-29T04:09:54.849Z,98366.60
2018-06-29T04:12:23.685Z,98366.13
2018-06-29T04:14:52.554Z,98361.70
2018-06-29T04:17:21.379Z,98362.20
2018-06-29T04:19:50.240Z,98367.02
2018-06-29T04:22:18.996Z,98361.08
2018-06-29T04:24:47.808Z,98362.64
2018-06-29T04:27:16.758Z,98362.11
2018-06-29T04:29:45.531Z,98370.55
2018-06-29T04:32:14.278Z,98365.86
2018-06-29T04:34:43.188Z,98356.71
2018-06-29T04:37:12.160Z,98354.31
2018-06-29T04:39:40.966Z,98353.83
2018-06-29T04:42:09.759Z,98352.92
2018-06-29T04:44:38.514Z,98354.70
2018-06-29T04:47:07.301Z,98357.11
2018-06-29T04:49:36.032Z,98351.88
2018-06-29T04:52:04.801Z,98349.77
2018-06-29T04:54:33.541Z,98340.67
2018-06-29T04:57:02.315Z,98348.84
2018-06-29T04:59:31.051Z,98346.94
2018-06-29T05:01:59.854Z,98334.61
2018-06-29T05:04:28.678Z,98333.37
2018-06-29T05:06:57.555Z,98332.95
2018-06-29T05:09:26.582Z,98334.29
2018-06-29T05:11:55.302Z,98332.13
2018-06-29T05:14:24.085Z,98331.14
2018-06-29T05:16:53.083Z,98335.09
2018-06-29T05:19:21.793Z,98342.09
2018-06-29T05:21:50.518Z,98350.59
2018-06-29T05:24:19.357Z,98345.08
2018-06-29T05:26:48.089Z,98354.95
2018-06-29T05:29:16.727Z,98349.45
2018-06-29T05:31:45.460Z,98349.96
2018-06-29T05:34:14.127Z,98350.05
2018-06-29T05:36:42.842Z,98352.09
2018-06-29T05:39:11.997Z,98351.31
2018-06-29T05:41:40.862Z,98363.47
2018-06-29T05:44:09.582Z,98358.05
2018-06-29T05:46:38.289Z,98363.25
2018-06-29T05:49:08.138Z,98360.65
2018-06-29T05:51:37.034Z,98373.12
2018-06-29T05:54:05.841Z,98363.48
2018-06-29T05:56:34.566Z,98362.09
2018-06-29T05:59:03.512Z,98364.09
2018-06-29T06:01:32.272Z,98366.23
2018-06-29T06:04:01.079Z,98362.78
2018-06-29T06:06:29.767Z,98374.25
2018-06-29T06:08:58.807Z,98366.56
2018-06-29T06:11:27.680Z,98372.14
2018-06-29T06:13:56.436Z,98373.03
2018-06-29T06:16:25.200Z,98363.56
2018-06-29T06:19:07.503Z,98372.70
2018-06-29T06:21:36.230Z,98365.34
2018-06-29T06:24:05.062Z,98368.32
2018-06-29T06:26:33.866Z,98371.41
2018-06-29T06:29:02.597Z,98370.54
2018-06-29T06:31:31.312Z,98366.65
2018-06-29T06:34:00.067Z,98355.98
2018-06-29T06:36:28.931Z,98358.52
2018-06-29T06:38:57.778Z,98353.35
2018-06-29T06:41:26.795Z,98348.33
2018-06-29T06:43:55.560Z,98348.74
2018-06-29T06:46:24.327Z,98344.48
2018-06-29T06:48:53.046Z,98345.59
2018-06-29T06:51:21.712Z,98357.05
2018-06-29T06:53:50.477Z,98362.44
2018-06-29T06:56:19.394Z,98355.77
2018-06-29T06:58:48.088Z,98355.29
2018-06-29T07:01:16.969Z,98349.34
2018-06-29T07:03:45.908Z,98352.47
2018-06-29T07:06:14.580Z,98355.89
2018-06-29T07:08:43.221Z,98351.33
2018-06-29T07:11:13.098Z,98356.21
2018-06-29T07:13:41.977Z,98359.34
2018-06-29T07:16:10.765Z,98361.09
2018-06-29T07:18:39.458Z,98361.75
2018-06-29T07:21:08.195Z,98368.63
2018-06-29T07:23:36.859Z,98362.77
2018-06-29T07:26:05.655Z,98355.00
2018-06-29T07:28:34.498Z,98351.69
2018-06-29T07:31:03.262Z,98355.64
2018-06-29T07:33:32.053Z,98356.81
2018-06-29T07:36:00.806Z,98362.73
2018-06-29T07:38:29.510Z,98353.76
2018-06-29T07:40:58.353Z,98362.27
2018-06-29T07:43:27.182Z,98359.08
2018-06-29T07:45:55.836Z,98363.19
2018-06-29T07:48:24.602Z,98359.80
2018-06-29T07:50:53.237Z,98363.70
2018-06-29T07:53:21.951Z,98363.50
2018-06-29T07:55:50.613Z,98362.33
2018-06-29T07:58:19.494Z,98361.98
2018-06-29T08:00:48.287Z,98369.55
2018-06-29T08:03:17.614Z,98360.25
2018-06-29T08:05:46.585Z,98358.69
2018-06-29T08:08:15.336Z,98363.19
2018-06-29T08:10:44.427Z,98368.29
2018-06-29T08:13:13.012Z,98364.69
2018-06-29T08:15:41.774Z,98356.75
2018-06-29T08:18:10.551Z,98361.98
2018-06-29T08:20:39.217Z,98368.50
2018-06-29T08:23:08.134Z,98370.16
2018-06-29T08:25:36.816Z,98369.02
2018-06-29T08:28:05.611Z,98369.11
2018-06-29T08:30:34.850Z,98368.75
2018-06-29T08:33:03.600Z,98372.91
2018-06-29T08:35:32.319Z,98374.72
2018-06-29T08:38:01.063Z,98370.95
2018-06-29T08:40:29.758Z,98369.91
2018-06-29T08:42:59.686Z,98366.39
2018-06-29T08:45:28.457Z,98367.85
2018-06-29T08:47:57.106Z,98366.96
2018-06-29T08:50:25.843Z,98358.16
2018-06-29T08:52:54.565Z,98365.38
2018-06-29T08:55:23.230Z,98359.12
2018-06-29T08:57:51.887Z,98366.59
2018-06-29T09:00:20.510Z,98373.02
2018-06-29T09:02:49.216Z,98373.13
2018-06-29T09:05:18.109Z,98370.88
2018-06-29T09:07:46.811Z,98378.03
2018-06-29T09:10:15.521Z,98372.27
2018-06-29T09:12:44.283Z,98370.70
2018-06-29T09:15:13.062Z,98363.16
2018-06-29T09:17:48.072Z,98361.98
2018-06-29T09:20:16.967Z,98352.48
2018-06-29T09:22:45.825Z,98351.27
2018-06-29T09:25:14.812Z,98355.42
2018-06-29T09:27:43.514Z,98349.52
2018-06-29T09:30:12.264Z,98354.16
2018-06-29T09:32:40.950Z,98353.30
2018-06-29T09:35:09.659Z,98344.27
2018-06-29T09:37:38.589Z,98345.98
2018-06-29T09:40:07.313Z,98345.39
2018-06-29T09:42:36.031Z,98346.97
2018-06-29T09:45:04.821Z,98339.44
2018-06-29T09:47:33.562Z,98338.17
2018-06-29T09:50:02.464Z,98341.24
2018-06-29T09:52:31.079Z,98337.09
2018-06-29T09:54:59.754Z,98341.55
2018-06-29T09:57:28.560Z,98343.58
2018-06-29T09:59:57.335Z,98343.45
2018-06-29T10:02:31.689Z,98346.00
2018-06-29T10:04:54.889Z,98340.80
2018-06-29T10:07:23.915Z,98330.25
2018-06-29T10:09:54.322Z,98331.63
2018-06-29T10:12:23.238Z,98329.58
2018-06-29T10:14:52.017Z,98332.78
2018-06-29T10:17:20.767Z,98327.27
2018-06-29T10:19:49.617Z,98323.48
2018-06-29T10:22:18.304Z,98322.69
2018-06-29T10:24:47.037Z,98327.89
2018-06-29T10:27:15.856Z,98325.25
2018-06-29T10:29:44.510Z,98326.45
2018-06-29T10:32:13.177Z,98321.30
2018-06-29T10:34:41.876Z,98321.95
2018-06-29T10:37:10.574Z,98316.25
2018-06-29T10:39:39.361Z,98315.67
2018-06-29T10:42:08.193Z,98316.33
2018-06-29T10:44:36.895Z,98318.27
2018-06-29T10:47:05.785Z,98309.19
2018-06-29T10:49:34.599Z,98307.36
2018-06-29T10:52:03.447Z,98301.78
2018-06-29T10:54:32.217Z,98302.38
2018-06-29T10:57:01.012Z,98302.11
2018-06-29T10:59:29.798Z,98297.87
2018-06-29T11:01:58.543Z,98305.52
2018-06-29T11:04:27.313Z,98301.94
2018-06-29T11:06:56.006Z,98298.80
2018-06-29T11:09:24.794Z,98298.02
2018-06-29T11:11:53.766Z,98296.03
2018-06-29T11:14:22.720Z,98293.78
2018-06-29T11:16:51.935Z,98286.60
2018-06-29T11:23:07.237Z,98283.77
2018-06-29T11:25:35.931Z,98277.00
2018-06-29T11:28:04.812Z,98281.47
2018-06-29T11:30:33.582Z,98278.72
2018-06-29T11:33:02.327Z,98289.30
2018-06-29T11:35:31.009Z,98276.38
2018-06-29T11:37:59.745Z,98275.35
2018-06-29T11:40:31.548Z,98270.48
2018-06-29T11:43:01.096Z,98264.41
2018-06-29T11:45:36.439Z,98264.41
2018-06-29T11:48:10.463Z,98266.95
2018-06-29T11:50:39.361Z,98262.42
2018-06-29T11:53:08.087Z,98260.12
2018-06-29T11:55:37.031Z,98262.72
2018-06-29T11:58:05.680Z,98252.02
2018-06-29T12:00:34.406Z,98244.67
2018-06-29T12:03:03.104Z,98240.06
2018-06-29T12:05:31.873Z,98240.66
2018-06-29T12:08:00.607Z,98234.60
2018-06-29T12:10:29.274Z,98232.13
2018-06-29T12:12:58.765Z,98239.25
2018-06-29T12:15:28.822Z,98235.14
2018-06-29T12:17:58.019Z,98239.17
2018-06-29T12:20:26.686Z,98243.70
2018-06-29T12:22:55.369Z,98234.77
2018-06-29T12:25:23.989Z,98229.05
2018-06-29T12:27:52.567Z,98237.29
2018-06-29T12:30:21.295Z,98223.00
2018-06-29T12:32:50.003Z,98225.19
2018-06-29T12:35:18.769Z,98225.08
2018-06-29T12:37:47.470Z,98225.43
2018-06-29T12:40:16.329Z,98225.85
2018-06-29T12:45:46.125Z,98209.34
2018-06-29T12:48:14.769Z,98222.41
2018-06-29T12:50:43.510Z,98219.11
2018-06-29T12:53:12.165Z,98223.03
2018-06-29T12:55:41.126Z,98218.87
2018-06-29T12:58:09.983Z,98215.82
2018-06-29T13:00:38.605Z,98215.34
2018-06-29T13:03:07.862Z,98215.70
2018-06-29T13:05:37.479Z,98213.27
2018-06-29T13:08:12.326Z,98214.70
2018-06-29T13:19:19.118Z,98195.27
2018-06-29T13:21:47.934Z,98193.12
2018-06-29T13:24:16.770Z,98192.17
2018-06-29T13:26:45.538Z,98183.73
2018-06-29T13:29:14.115Z,98187.50
2018-06-29T13:31:42.855Z,98185.09
2018-06-29T13:34:11.724Z,98181.56
2018-06-29T13:36:40.565Z,98180.71
2018-06-29T13:39:10.794Z,98179.33
2018-06-29T13:41:39.672Z,98180.25
2018-06-29T13:44:08.466Z,98168.51
2018-06-29T13:46:37.224Z,98163.98
2018-06-29T13:49:05.985Z,98162.42
2018-06-29T13:51:34.733Z,98167.77
2018-06-29T13:54:03.393Z,98162.53
2018-06-29T13:56:32.160Z,98160.81
2018-06-29T13:59:00.897Z,98149.84
2018-06-29T14:01:29.569Z,98149.58
2018-06-29T14:03:59.612Z,98153.59
2018-06-29T14:06:28.900Z,98153.83
2018-06-29T14:08:57.697Z,98151.82
2018-06-29T14:11:27.090Z,98145.50
2018-06-29T14:13:55.987Z,98138.16
2018-06-29T14:16:24.812Z,98144.00
2018-06-29T14:18:53.728Z,98139.42
2018-06-29T14:21:22.749Z,98142.07
2018-06-29T14:23:51.687Z,98140.91
2018-06-29T14:26:20.877Z,98131.03
2018-06-29T14:28:49.834Z,98131.70
2018-06-29T14:31:18.606Z,98127.23
2018-06-29T14:33:47.709Z,98131.27
2018-06-29T14:36:16.573Z,98124.26
2018-06-29T14:38:45.372Z,98127.84
2018-06-29T14:41:14.055Z,98118.75
2018-06-29T14:43:42.820Z,98113.47
2018-06-29T14:46:12.443Z,98115.55
2018-06-29T14:48:41.231Z,98105.39
2018-06-29T14:51:10.007Z,98113.48
2018-06-29T14:53:38.780Z,98113.02
2018-06-29T14:56:08.011Z,98116.73
2018-06-29T14:58:36.989Z,98111.59
2018-06-29T15:01:06.459Z,98108.17
2018-06-29T15:03:35.751Z,98102.18
2018-06-29T15:06:04.573Z,98102.67
2018-06-29T15:08:34.085Z,98098.41
2018-06-29T15:11:02.921Z,98095.09
2018-06-29T15:13:35.019Z,98091.35
2018-06-29T15:16:04.322Z,98093.05
2018-06-29T15:18:33.141Z,98099.12
2018-06-29T15:21:01.809Z,98094.44
2018-06-29T15:23:34.037Z,98088.95
2018-06-29T15:26:04.994Z,98091.94
2018-06-29T15:28:33.732Z,98089.84
2018-06-29T15:31:02.656Z,98092.08
2018-06-29T15:33:31.506Z,98092.52
2018-06-29T15:36:00.341Z,98086.45
2018-06-29T15:38:28.928Z,98086.22
2018-06-29T15:40:57.907Z,98095.52
2018-06-29T15:43:26.649Z,98083.19
2018-06-29T15:45:55.543Z,98090.19
2018-06-29T15:48:25.370Z,98088.91
2018-06-29T15:50:54.234Z,98078.78
2018-06-29T15:53:22.899Z,98080.20
2018-06-29T15:55:51.691Z,98083.44
2018-06-29T15:58:20.686Z,98075.98
2018-06-29T16:00:49.731Z,98077.75
2018-06-29T16:03:18.490Z,98075.59
2018-06-29T16:05:47.507Z,98076.35
2018-06-29T16:08:16.311Z,98077.92
2018-06-29T16:10:44.937Z,98084.41
2018-06-29T16:13:13.785Z,98075.63
2018-06-29T16:15:42.616Z,98069.55
2018-06-29T16:18:11.348Z,98074.45
2018-06-29T16:20:40.091Z,98068.83
2018-06-29T16:23:08.856Z,98069.98
2018-06-29T16:25:37.545Z,98071.44
2018-06-29T16:28:06.416Z,98072.98
2018-06-29T16:30:35.214Z,98073.16
2018-06-29T16:33:03.843Z,98071.50
2018-06-29T16:35:32.765Z,98068.30
2018-06-29T16:38:01.486Z,98063.08
2018-06-29T16:40:30.373Z,98060.95
2018-06-29T16:42:59.061Z,98061.11
2018-06-29T16:45:27.822Z,98058.75
2018-06-29T16:47:56.609Z,98063.02
2018-06-29T16:50:25.466Z,98059.86
2018-06-29T16:52:54.185Z,98061.53
2018-06-29T16:55:22.892Z,98063.59
2018-06-29T16:57:51.517Z,98059.05
2018-06-29T17:00:20.364Z,98063.05
2018-06-29T17:02:49.018Z,98053.28
2018-06-29T17:05:17.723Z,98055.75
2018-06-29T17:07:46.612Z,98053.39
2018-06-29T17:10:15.431Z,98050.92
2018-06-29T17:12:44.065Z,98056.64
2018-06-29T17:15:12.771Z,98053.61
2018-06-29T17:17:41.454Z,98053.75
2018-06-29T17:20:10.214Z,98049.91
2018-06-29T17:22:38.887Z,98056.66
2018-06-29T17:25:07.675Z,98048.34
2018-06-29T17:27:36.388Z,98050.20
2018-06-29T17:30:05.554Z,98049.24
2018-06-29T17:32:34.440Z,98046.96
2018-06-29T17:35:03.190Z,98055.45
2018-06-29T17:37:35.557Z,98041.47
2018-06-29T17:40:05.900Z,98043.50
2018-06-29T17:42:34.815Z,98047.33
2018-06-29T17:45:07.183Z,98043.13
2018-06-29T17:47:40.848Z,98048.89
2018-06-29T17:50:09.875Z,98044.61
2018-06-29T17:52:38.698Z,98044.72
2018-06-29T17:58:01.200Z,98045.91
2018-06-29T18:00:30.000Z,98048.73
2018-06-29T18:02:58.607Z,98047.17
2018-06-29T18:05:58.721Z,98045.80
2018-06-29T18:08:39.202Z,98047.92
2018-06-29T18:11:08.384Z,98042.25
2018-06-29T18:13:37.324Z,98043.88
2018-06-29T18:16:06.742Z,98045.00
2018-06-29T18:18:35.314Z,98040.44
2018-06-29T18:21:04.130Z,98045.71
2018-06-29T18:23:32.851Z,98050.35
2018-06-29T18:26:01.705Z,98049.70
2018-06-29T18:28:30.607Z,98047.51
2018-06-29T18:30:59.629Z,98042.25
2018-06-29T18:33:34.771Z,98042.45
2018-06-29T18:36:03.685Z,98050.64
2018-06-29T18:38:32.393Z,98048.63
2018-06-29T18:41:01.043Z,98047.83
2018-06-29T18:43:29.743Z,98051.38
2018-06-29T18:45:58.492Z,98047.33
2018-06-29T18:48:27.352Z,98045.62
2018-06-29T18:50:56.195Z,98049.02
2018-06-29T18:53:24.981Z,98049.58
2018-06-29T18:55:54.187Z,98052.16
2018-06-29T18:58:25.548Z,98049.67
2018-06-29T19:00:54.245Z,98052.38
2018-06-29T19:03:22.956Z,98054.12
2018-06-29T19:05:51.744Z,98056.13
2018-06-29T19:08:21.138Z,98051.34
2018-06-29T19:10:49.925Z,98050.47
2018-06-29T19:13:18.568Z,98054.76
2018-06-29T19:15:47.529Z,98057.03
2018-06-29T19:18:16.243Z,98054.88
2018-06-29T19:20:45.114Z,98060.98
2018-06-29T19:23:13.825Z,98051.88
2018-06-29T19:25:42.671Z,98057.77
2018-06-29T19:28:12.242Z,98055.38
2018-06-29T19:30:41.066Z,98060.23
2018-06-29T19:33:11.185Z,98058.13
2018-06-29T19:35:55.156Z,98060.08
2018-06-29T19:38:24.141Z,98064.59
2018-06-29T19:40:52.973Z,98063.52
2018-06-29T19:43:23.316Z,98070.50
2018-06-29T19:45:52.098Z,98067.66
2018-06-29T19:48:21.296Z,98069.34
2018-06-29T19:50:50.426Z,98074.44
2018-06-29T19:53:19.310Z,98070.78
2018-06-29T19:55:48.068Z,98077.72
2018-06-29T19:58:16.853Z,98076.09
2018-06-29T20:00:45.787Z,98077.25
2018-06-29T20:03:14.613Z,98084.04
2018-06-29T20:05:43.297Z,98079.63
2018-06-29T20:08:12.218Z,98084.72
2018-06-29T20:10:42.212Z,98084.77
2018-06-29T20:13:11.169Z,98087.78
2018-06-29T20:15:39.881Z,98086.61
2018-06-29T20:18:08.703Z,98078.86
2018-06-29T20:20:37.584Z,98083.90
2018-06-29T20:23:06.280Z,98079.20
2018-06-29T20:25:35.067Z,98083.22
2018-06-29T20:28:03.723Z,98093.63
2018-06-29T20:30:32.528Z,98088.08
2018-06-29T20:33:01.487Z,98091.90
2018-06-29T20:35:30.478Z,98089.74
2018-06-29T20:37:59.265Z,98089.89
2018-06-29T20:40:28.071Z,98090.17
2018-06-29T20:42:57.052Z,98089.63
2018-06-29T20:45:25.756Z,98090.63
2018-06-29T20:47:54.690Z,98095.45
2018-06-29T20:50:25.871Z,98098.27
2018-06-29T20:52:56.887Z,98100.28
2018-06-29T20:55:25.708Z,98097.77
2018-06-29T20:57:54.500Z,98099.06
2018-06-29T21:00:23.362Z,98110.57
2018-06-29T21:02:52.146Z,98105.86
2018-06-29T21:05:20.897Z,98104.89
2018-06-29T21:07:49.601Z,98101.34
2018-06-29T21:10:18.532Z,98106.51
2018-06-29T21:12:47.337Z,98105.93
2018-06-29T21:15:15.971Z,98110.94
2018-06-29T21:17:44.773Z,98104.42
2018-06-29T21:20:13.656Z,98103.01
2018-06-29T21:22:42.380Z,98103.84
2018-06-29T21:25:11.238Z,98108.63
2018-06-29T21:27:40.852Z,98109.13
2018-06-29T21:30:12.483Z,98101.18
2018-06-29T21:32:41.192Z,98096.75
2018-06-29T21:35:09.972Z,98102.89
2018-06-29T21:37:48.059Z,98103.08
2018-06-29T21:40:19.602Z,98106.42
2018-06-29T21:42:48.977Z,98101.63
2018-06-29T21:45:20.819Z,98105.25
2018-06-29T21:47:51.188Z,98106.56
2018-06-29T21:50:20.844Z,98109.30
2018-06-29T21:52:50.428Z,98108.88
2018-06-29T21:55:21.572Z,98102.72
2018-06-29T21:57:51.005Z,98103.63
2018-06-29T22:00:20.650Z,98102.26
2018-06-29T22:02:49.758Z,98095.30
2018-06-29T22:05:19.740Z,98099.22
2018-06-29T22:07:49.747Z,98092.91
2018-06-29T22:10:20.918Z,98094.38
2018-06-29T22:12:49.772Z,98092.67
2018-06-29T22:15:23.181Z,98084.77
2018-06-29T22:17:51.875Z,98083.37
2018-06-29T22:20:21.157Z,98081.34
2018-06-29T22:22:49.853Z,98081.02
2018-06-29T22:25:19.038Z,98080.13
2018-06-29T22:27:48.150Z,98084.75
2018-06-29T22:30:17.354Z,98079.97
2018-06-29T22:32:46.076Z,98088.69
2018-06-29T22:35:14.846Z,98082.81
2018-06-29T22:37:43.752Z,98087.22
2018-06-29T22:40:12.597Z,98083.70
2018-06-29T22:42:41.561Z,98085.73
2018-06-29T22:45:10.357Z,98086.84
2018-06-29T22:47:39.039Z,98079.34
2018-06-29T22:50:07.783Z,98082.45
2018-06-29T22:52:36.812Z,98088.20
2018-06-29T22:55:05.596Z,98086.73
2018-06-29T22:57:34.314Z,98081.27
2018-06-29T23:00:03.068Z,98079.08
2018-06-29T23:02:31.743Z,98079.08
2018-06-29T23:05:00.547Z,98087.41
2018-06-29T23:07:29.312Z,98083.61
2018-06-29T23:09:58.091Z,98085.70
2018-06-29T23:12:26.813Z,98084.06
2018-06-29T23:14:55.464Z,98081.88
2018-06-29T23:17:24.259Z,98080.81
2018-06-29T23:19:52.879Z,98078.51
2018-06-29T23:22:21.568Z,98078.85
2018-06-29T23:24:50.432Z,98079.16
2018-06-29T23:27:19.088Z,98076.82
2018-06-29T23:29:47.777Z,98073.22
2018-06-29T23:32:16.529Z,98067.88
2018-06-29T23:34:45.230Z,98068.94
2018-06-29T23:37:13.938Z,98067.13
2018-06-29T23:39:42.636Z,98066.13
2018-06-29T23:42:11.488Z,98057.79
2018-06-29T23:44:40.215Z,98063.19
2018-06-29T23:47:08.855Z,98063.49
2018-06-29T23:49:37.526Z,98064.03
2018-06-29T23:52:06.421Z,98060.19
2018-06-29T23:54:35.310Z,98061.30
2018-06-29T23:57:04.172Z,98056.82
2018-06-29T23:59:32.950Z,98053.52
